Time;durP1;ratioP1;P1;durP2;ratioP2;P2;SDS_P1;SDS_P2;PMS_P1;PMS_P2;Temp;Humidity;BMP_temperature;BMP_pressure;BME280_temperature;BME280_humidity;BME280_pressure;Samples;Min_cycle;Max_cycle;Signal;HPM_P1;HPM_P2
2023/01/21 12:35:09;;;;;;;34.63;20.58;;;;;;;;;;7306186;19;20019;-76
2023/01/21 12:37:55;;;;;;;35.17;20.08;;;;;;;;;;7344228;19;20408;-73
2023/01/21 12:40:26;;;;;;;35.03;20.75;;;;;;;;;;7334978;19;20609;-75
2023/01/21 12:42:54;;;;;;;39.92;22.10;;;;;;;;;;7358965;19;20410;-74
2023/01/21 12:45:22;;;;;;;38.22;21.13;;;;;;;;;;7364636;19;20034;-75
2023/01/21 12:48:00;;;;;;;57.00;27.10;;;;;;;;;;7356061;19;20036;-75
2023/01/21 12:50:39;;;;;;;35.78;20.63;;;;;;;;;;7350474;19;19999;-74
2023/01/21 12:53:08;;;;;;;52.42;26.52;;;;;;;;;;7352746;19;20025;-76
2023/01/21 12:55:57;;;;;;;66.88;32.40;;;;;;;;;;7365711;19;20105;-75
2023/01/21 12:58:25;;;;;;;51.72;26.88;;;;;;;;;;7360769;19;20006;-76
2023/01/21 13:00:52;;;;;;;42.45;22.92;;;;;;;;;;7355429;19;20022;-75
2023/01/21 13:03:31;;;;;;;37.70;20.58;;;;;;;;;;7354936;19;20937;-75
2023/01/21 13:06:02;;;;;;;35.53;21.00;;;;;;;;;;7361069;19;20014;-74
2023/01/21 13:08:27;;;;;;;34.97;20.77;;;;;;;;;;7354919;19;20014;-74
2023/01/21 13:10:56;;;;;;;38.30;21.96;;;;;;;;;;7358873;19;20029;-74
2023/01/21 13:13:31;;;;;;;35.67;21.17;;;;;;;;;;7363938;19;20573;-78
2023/01/21 13:15:59;;;;;;;38.58;22.55;;;;;;;;;;7352922;19;20002;-75
2023/01/21 13:18:56;;;;;;;40.33;23.50;;;;;;;;;;7332931;19;20070;-75
2023/01/21 13:21:22;;;;;;;35.55;22.05;;;;;;;;;;7358460;19;20394;-75
2023/01/21 13:23:56;;;;;;;37.60;20.77;;;;;;;;;;7359663;19;20086;-73
2023/01/21 13:26:31;;;;;;;43.97;24.00;;;;;;;;;;7359266;19;20034;-74
2023/01/21 13:29:01;;;;;;;39.50;23.73;;;;;;;;;;7359075;19;21262;-74
2023/01/21 13:31:30;;;;;;;40.58;23.60;;;;;;;;;;7357631;19;20551;-75
2023/01/21 13:33:58;;;;;;;39.97;24.77;;;;;;;;;;7353382;19;20014;-73
2023/01/21 13:36:32;;;;;;;38.92;24.65;;;;;;;;;;7363191;19;19995;-73
2023/01/21 13:39:04;;;;;;;45.97;27.40;;;;;;;;;;7363933;19;20492;-74
2023/01/21 13:41:54;;;;;;;46.17;27.35;;;;;;;;;;7364097;19;19995;-75
2023/01/21 13:44:20;;;;;;;42.53;26.83;;;;;;;;;;7362909;19;20379;-75
2023/01/21 13:46:54;;;;;;;46.05;27.95;;;;;;;;;;7361300;19;20005;-75
2023/01/21 13:49:35;;;;;;;42.72;25.52;;;;;;;;;;7361752;19;20513;-74
2023/01/21 13:52:00;;;;;;;47.97;29.42;;;;;;;;;;7354467;19;20466;-74
2023/01/21 13:54:28;;;;;;;49.42;27.95;;;;;;;;;;7365136;19;20011;-76
2023/01/21 13:56:56;;;;;;;39.90;24.25;;;;;;;;;;7362376;19;20111;-75
2023/01/21 13:59:28;;;;;;;42.40;27.08;;;;;;;;;;7360270;19;20451;-74
2023/01/21 14:01:56;;;;;;;41.75;26.10;;;;;;;;;;7358151;19;20054;-73
2023/01/21 14:04:38;;;;;;;36.75;23.25;;;;;;;;;;7338885;19;20047;-72
2023/01/21 14:07:33;;;;;;;39.72;24.67;;;;;;;;;;7359348;19;20455;-77
2023/01/21 14:10:02;;;;;;;40.22;25.23;;;;;;;;;;7351819;19;20692;-76
2023/01/21 14:12:53;;;;;;;40.80;24.75;;;;;;;;;;7364026;19;20003;-75
2023/01/21 14:15:31;;;;;;;45.50;27.60;;;;;;;;;;7364934;19;20485;-76
2023/01/21 14:18:08;;;;;;;41.38;25.15;;;;;;;;;;7357224;19;20155;-77
2023/01/21 14:20:48;;;;;;;40.28;23.85;;;;;;;;;;7363419;19;20103;-77
2023/01/21 14:23:32;;;;;;;40.95;23.55;;;;;;;;;;7352249;19;20115;-76
2023/01/21 14:26:12;;;;;;;37.08;22.88;;;;;;;;;;7333227;19;20127;-76
2023/01/21 14:28:43;;;;;;;40.55;23.80;;;;;;;;;;7358516;19;20071;-76
2023/01/21 14:31:20;;;;;;;38.33;23.73;;;;;;;;;;7362168;19;20026;-75
2023/01/21 14:33:48;;;;;;;40.53;23.42;;;;;;;;;;7354350;19;20130;-76
2023/01/21 14:36:16;;;;;;;36.53;22.88;;;;;;;;;;7364850;19;20131;-75
2023/01/21 14:38:47;;;;;;;35.75;21.63;;;;;;;;;;7349998;19;20027;-77
2023/01/21 14:41:13;;;;;;;35.65;20.67;;;;;;;;;;7347699;19;20111;-75
2023/01/21 14:43:41;;;;;;;34.20;20.98;;;;;;;;;;7365619;19;20078;-75
2023/01/21 14:46:27;;;;;;;36.08;21.67;;;;;;;;;;7367683;19;20498;-76
2023/01/21 14:49:07;;;;;;;37.03;20.25;;;;;;;;;;7344557;19;20014;-77
2023/01/21 14:51:36;;;;;;;34.95;21.13;;;;;;;;;;7359941;19;20007;-75
2023/01/21 14:54:04;;;;;;;34.85;21.30;;;;;;;;;;7369939;19;20384;-78
2023/01/21 14:56:33;;;;;;;33.38;20.42;;;;;;;;;;7362615;19;20338;-77
2023/01/21 14:59:00;;;;;;;33.60;20.27;;;;;;;;;;7333744;19;20086;-76
2023/01/21 15:01:40;;;;;;;31.30;20.20;;;;;;;;;;7370642;19;20031;-76
2023/01/21 15:04:14;;;;;;;34.85;19.83;;;;;;;;;;7367887;19;20367;-77
2023/01/21 15:06:39;;;;;;;34.53;20.48;;;;;;;;;;7371415;19;20530;-77
2023/01/21 15:09:04;;;;;;;35.85;21.73;;;;;;;;;;7366167;19;20006;-77
2023/01/21 15:11:39;;;;;;;35.75;22.27;;;;;;;;;;7375627;19;19994;-77
2023/01/21 15:14:12;;;;;;;47.47;29.95;;;;;;;;;;7358162;19;20029;-77
2023/01/21 15:16:40;;;;;;;31.13;19.70;;;;;;;;;;7363940;19;20722;-76
2023/01/21 15:19:08;;;;;;;33.17;19.42;;;;;;;;;;7365601;19;20449;-76
2023/01/21 15:21:40;;;;;;;32.92;19.20;;;;;;;;;;7365084;19;19999;-77
2023/01/21 15:24:32;;;;;;;30.58;19.02;;;;;;;;;;7366766;19;20047;-78
2023/01/21 15:27:12;;;;;;;30.00;19.33;;;;;;;;;;7361668;19;20133;-77
2023/01/21 15:29:38;;;;;;;31.23;19.58;;;;;;;;;;7364092;19;20010;-77
2023/01/21 15:32:11;;;;;;;33.13;19.95;;;;;;;;;;7357572;19;20561;-76
2023/01/21 15:34:36;;;;;;;27.50;17.08;;;;;;;;;;7364773;19;20411;-77
2023/01/21 15:37:01;;;;;;;27.70;16.73;;;;;;;;;;7368441;19;20493;-76
2023/01/21 15:39:33;;;;;;;27.58;17.95;;;;;;;;;;7369209;19;20078;-76
2023/01/21 15:42:17;;;;;;;28.63;17.17;;;;;;;;;;7350943;19;20083;-77
2023/01/21 15:44:45;;;;;;;29.48;17.75;;;;;;;;;;7355371;19;20006;-76
2023/01/21 15:47:26;;;;;;;30.42;18.73;;;;;;;;;;7359555;19;20337;-76
2023/01/21 15:50:00;;;;;;;27.77;17.30;;;;;;;;;;7364553;19;20493;-77
2023/01/21 15:52:39;;;;;;;28.25;18.25;;;;;;;;;;7364253;19;20041;-77
2023/01/21 15:55:14;;;;;;;31.42;19.42;;;;;;;;;;7365462;19;20711;-78
2023/01/21 15:58:00;;;;;;;30.83;19.20;;;;;;;;;;7350440;19;20022;-77
2023/01/21 16:00:32;;;;;;;31.60;19.88;;;;;;;;;;7354020;19;20051;-77
2023/01/21 16:03:00;;;;;;;33.35;20.75;;;;;;;;;;7353631;19;20035;-78
2023/01/21 16:05:44;;;;;;;31.75;19.45;;;;;;;;;;7359305;19;19999;-77
2023/01/21 16:08:12;;;;;;;28.88;17.83;;;;;;;;;;7365866;19;20019;-77
2023/01/21 16:10:46;;;;;;;31.00;19.88;;;;;;;;;;7368694;19;20571;-77
2023/01/21 16:13:22;;;;;;;36.20;18.95;;;;;;;;;;7366505;19;20010;-78
2023/01/21 16:16:24;;;;;;;34.08;19.60;;;;;;;;;;7368685;19;20026;-79
2023/01/21 16:18:58;;;;;;;34.83;21.60;;;;;;;;;;7361823;19;20011;-77
2023/01/21 16:21:26;;;;;;;35.78;20.40;;;;;;;;;;7370607;19;20014;-77
2023/01/21 16:23:54;;;;;;;35.47;20.02;;;;;;;;;;7370111;19;20416;-77
2023/01/21 16:26:26;;;;;;;30.45;19.10;;;;;;;;;;7369773;19;20336;-77
2023/01/21 16:28:53;;;;;;;28.45;18.30;;;;;;;;;;7365469;19;20006;-78
2023/01/21 16:31:18;;;;;;;36.47;22.63;;;;;;;;;;7371331;19;20351;-78
2023/01/21 16:33:43;;;;;;;42.70;26.05;;;;;;;;;;7366938;19;20097;-77
2023/01/21 16:36:13;;;;;;;34.42;21.88;;;;;;;;;;7359527;19;20711;-78
2023/01/21 16:38:38;;;;;;;36.80;23.95;;;;;;;;;;7369411;19;20121;-77
2023/01/21 16:41:06;;;;;;;34.17;21.73;;;;;;;;;;7365838;19;20071;-77
2023/01/21 16:43:36;;;;;;;34.50;22.17;;;;;;;;;;7370432;19;20018;-77
2023/01/21 16:46:02;;;;;;;34.45;22.83;;;;;;;;;;7366332;19;20102;-78
2023/01/21 16:48:29;;;;;;;37.42;22.38;;;;;;;;;;7367518;19;20027;-77
2023/01/21 16:50:55;;;;;;;37.20;22.30;;;;;;;;;;7369467;19;20033;-78
2023/01/21 16:53:21;;;;;;;41.47;26.80;;;;;;;;;;7372895;19;20368;-77
2023/01/21 16:55:47;;;;;;;36.78;23.90;;;;;;;;;;7369998;19;19999;-77
2023/01/21 16:58:20;;;;;;;39.50;24.10;;;;;;;;;;7367051;19;20033;-77
2023/01/21 17:00:56;;;;;;;43.47;26.00;;;;;;;;;;7371668;19;20125;-77
2023/01/21 17:03:22;;;;;;;38.55;23.08;;;;;;;;;;7366434;19;20034;-77
2023/01/21 17:05:48;;;;;;;40.95;25.88;;;;;;;;;;7369217;19;20014;-77
2023/01/21 17:08:14;;;;;;;32.67;21.45;;;;;;;;;;7367935;19;20006;-78
2023/01/21 17:10:51;;;;;;;37.53;21.85;;;;;;;;;;7370029;19;20023;-77
2023/01/21 17:13:17;;;;;;;38.13;23.50;;;;;;;;;;7366336;19;20028;-77
2023/01/21 17:15:48;;;;;;;36.25;22.85;;;;;;;;;;7366952;19;20071;-77
2023/01/21 17:18:21;;;;;;;43.30;26.02;;;;;;;;;;7364256;19;20318;-77
2023/01/21 17:20:48;;;;;;;44.00;27.50;;;;;;;;;;7367691;19;20017;-77
2023/01/21 17:23:24;;;;;;;46.45;28.70;;;;;;;;;;7366271;19;20416;-77
2023/01/21 17:25:55;;;;;;;40.85;26.83;;;;;;;;;;7366927;19;20014;-80
2023/01/21 17:28:28;;;;;;;38.80;24.95;;;;;;;;;;7369243;19;20468;-77
2023/01/21 17:31:12;;;;;;;45.15;26.20;;;;;;;;;;7367635;19;20026;-78
2023/01/21 17:33:37;;;;;;;36.95;23.38;;;;;;;;;;7368227;19;20014;-77
2023/01/21 17:36:12;;;;;;;34.78;23.17;;;;;;;;;;7368879;19;20126;-77
2023/01/21 17:38:38;;;;;;;36.92;23.20;;;;;;;;;;7369431;19;20011;-78
2023/01/21 17:41:10;;;;;;;37.38;24.25;;;;;;;;;;7367370;19;20071;-77
2023/01/21 17:43:37;;;;;;;41.47;24.73;;;;;;;;;;7368406;19;20350;-77
2023/01/21 17:46:04;;;;;;;40.05;23.95;;;;;;;;;;7367157;19;20023;-77
2023/01/21 17:48:36;;;;;;;43.13;25.75;;;;;;;;;;7366109;19;20085;-77
2023/01/21 17:51:04;;;;;;;39.43;24.53;;;;;;;;;;7366803;19;20005;-77
2023/01/21 17:53:32;;;;;;;39.05;23.85;;;;;;;;;;7370389;19;20017;-77
2023/01/21 17:55:59;;;;;;;40.30;23.45;;;;;;;;;;7366681;19;19998;-78
2023/01/21 17:58:30;;;;;;;39.20;24.50;;;;;;;;;;7367438;19;20002;-78
2023/01/21 18:00:57;;;;;;;38.67;24.25;;;;;;;;;;7369276;19;20018;-77
2023/01/21 18:03:22;;;;;;;39.63;23.85;;;;;;;;;;7366203;19;20037;-77
2023/01/21 18:05:48;;;;;;;36.10;23.25;;;;;;;;;;7369390;19;20069;-78
2023/01/21 18:08:14;;;;;;;37.85;24.10;;;;;;;;;;7365865;19;19998;-78
2023/01/21 18:10:39;;;;;;;37.63;24.63;;;;;;;;;;7368034;19;20022;-78
2023/01/21 18:13:05;;;;;;;43.60;26.15;;;;;;;;;;7357882;19;20021;-79
2023/01/21 18:15:30;;;;;;;40.45;24.55;;;;;;;;;;7369191;19;20047;-77
2023/01/21 18:17:57;;;;;;;39.28;24.10;;;;;;;;;;7361557;19;20447;-78
2023/01/21 18:20:27;;;;;;;38.42;23.40;;;;;;;;;;7368442;19;20018;-78
2023/01/21 18:22:53;;;;;;;37.88;23.38;;;;;;;;;;7364923;19;20015;-77
2023/01/21 18:25:19;;;;;;;36.83;23.63;;;;;;;;;;7365546;19;20107;-78
2023/01/21 18:27:45;;;;;;;41.00;23.33;;;;;;;;;;7361360;19;20514;-78
2023/01/21 18:30:11;;;;;;;39.63;23.33;;;;;;;;;;7365120;19;20361;-78
2023/01/21 18:32:36;;;;;;;40.35;23.83;;;;;;;;;;7362495;19;19995;-78
2023/01/21 18:35:02;;;;;;;35.20;21.20;;;;;;;;;;7359990;19;20322;-77
2023/01/21 18:37:27;;;;;;;35.10;21.52;;;;;;;;;;7361765;19;20492;-78
2023/01/21 18:39:52;;;;;;;35.83;23.38;;;;;;;;;;7365367;19;20011;-77
2023/01/21 18:42:17;;;;;;;35.40;22.68;;;;;;;;;;7366249;19;20522;-78
2023/01/21 18:44:43;;;;;;;35.20;21.55;;;;;;;;;;7368346;19;20114;-78
2023/01/21 18:47:10;;;;;;;34.65;22.20;;;;;;;;;;7360768;19;20022;-79
2023/01/21 18:49:35;;;;;;;35.17;20.98;;;;;;;;;;7362747;19;20015;-77
2023/01/21 23:02:38;;;;;;;37.65;21.20;;;;;;;;;;7314612;19;20450;-76
2023/01/21 23:05:04;;;;;;;40.63;21.25;;;;;;;;;;7355306;19;20178;-74
2023/01/21 23:07:29;;;;;;;40.38;21.60;;;;;;;;;;7367406;19;19994;-74
2023/01/21 23:09:54;;;;;;;38.75;20.13;;;;;;;;;;7366368;19;20010;-77
2023/01/21 23:12:19;;;;;;;37.28;20.04;;;;;;;;;;7370658;19;20102;-77
2023/01/21 23:14:45;;;;;;;35.25;19.35;;;;;;;;;;7369556;19;20018;-77
2023/01/21 23:17:10;;;;;;;35.45;19.45;;;;;;;;;;7367692;19;20498;-77
2023/01/21 23:19:35;;;;;;;39.47;21.25;;;;;;;;;;7359947;19;20344;-77
2023/01/21 23:22:00;;;;;;;38.58;20.28;;;;;;;;;;7369674;19;20110;-75
2023/01/21 23:24:26;;;;;;;35.92;19.35;;;;;;;;;;7367390;19;20020;-76
2023/01/21 23:26:51;;;;;;;32.80;19.65;;;;;;;;;;7372257;19;20006;-77
2023/01/21 23:29:16;;;;;;;36.33;19.80;;;;;;;;;;7369966;19;20007;-74
2023/01/21 23:31:41;;;;;;;34.53;18.88;;;;;;;;;;7366698;19;20003;-75
2023/01/21 23:34:06;;;;;;;34.85;18.75;;;;;;;;;;7345788;19;20262;-77
2023/01/21 23:36:31;;;;;;;36.67;20.27;;;;;;;;;;7351861;19;20031;-75
2023/01/21 23:38:57;;;;;;;36.75;21.00;;;;;;;;;;7369338;19;20011;-77
2023/01/21 23:41:22;;;;;;;40.28;20.67;;;;;;;;;;7369939;19;20369;-74
2023/01/21 23:43:47;;;;;;;37.65;18.65;;;;;;;;;;7364087;19;20001;-76
2023/01/21 23:46:18;;;;;;;35.20;19.88;;;;;;;;;;7365438;19;20002;-77
2023/01/21 23:48:43;;;;;;;35.10;19.17;;;;;;;;;;7361690;19;20011;-77
2023/01/21 23:51:10;;;;;;;36.15;18.38;;;;;;;;;;7367531;19;20003;-77
2023/01/21 23:53:35;;;;;;;35.17;19.98;;;;;;;;;;7366504;19;20174;-75
2023/01/21 23:56:07;;;;;;;36.70;18.60;;;;;;;;;;7335296;19;20479;-74
2023/01/21 23:58:32;;;;;;;39.55;19.92;;;;;;;;;;7360166;19;20044;-75
